Arlon, Belgium
Current Conditions -  °F | °C
As of 6:20 PM on Thursday 23 Oct 2014 (Local Time) from ELLX Reporting Station
Broken Clouds Broken Clouds  
Wind Chill: 46°   Ceiling: 3000
Heat Index: 48°   Visibility: 6mi
Dew Point: 46°   Wind: 5mph
Humidity: 93%   Direction: 220°SW
Pressure: 30.21"   Gusts: NA
Location:  49.68°N, 5.82°E
Report Text: ELLX 231620Z 22004KT 180V260 9999 SCT008 BKN030 09/08 Q1023 NOSIG
Loading
Personal Weather Stations






























Interactive Weather Map
Tropical Storm Tracking
New forecast layout! Learn more

10-Day Weather Forecast

Advertisements
Track Severe Weather on mobile